createdAt,value
2018-02-12T00:00:37.543Z,31.50
2018-02-12T00:03:05.166Z,30.47
2018-02-12T00:05:32.746Z,25.30
2018-02-12T00:08:00.306Z,28.73
2018-02-12T00:10:27.922Z,29.73
2018-02-12T00:12:55.486Z,30.70
2018-02-12T00:15:23.059Z,31.40
2018-02-12T00:17:50.640Z,32.07
2018-02-12T00:20:18.239Z,32.20
2018-02-12T00:22:45.915Z,34.13
2018-02-12T00:25:13.482Z,34.50
2018-02-12T00:27:41.064Z,35.07
2018-02-12T00:30:08.736Z,31.80
2018-02-12T00:32:36.298Z,32.20
2018-02-12T00:35:03.964Z,35.27
2018-02-12T00:37:31.527Z,32.87
2018-02-12T00:39:59.147Z,33.20
2018-02-12T00:42:26.714Z,32.40
2018-02-12T00:44:55.508Z,31.20
2018-02-12T00:47:23.177Z,30.87
2018-02-12T00:49:50.737Z,33.37
2018-02-12T00:52:18.298Z,31.30
2018-02-12T00:54:45.870Z,31.33
2018-02-12T00:57:13.495Z,32.13
2018-02-12T00:59:41.177Z,30.07
2018-02-12T01:02:08.754Z,28.93
2018-02-12T01:04:36.318Z,30.83
2018-02-12T01:07:03.967Z,29.57
2018-02-12T01:09:31.587Z,29.27
2018-02-12T01:11:59.218Z,31.77
2018-02-12T01:14:26.804Z,31.37
2018-02-12T01:16:54.431Z,31.20
2018-02-12T01:19:22.000Z,29.20
2018-02-12T01:21:49.625Z,29.67
2018-02-12T01:24:17.199Z,27.00
2018-02-12T01:26:44.757Z,28.47
2018-02-12T01:29:16.064Z,31.23
2018-02-12T01:31:43.679Z,31.27
2018-02-12T01:34:11.320Z,32.40
2018-02-12T01:36:38.890Z,33.50
2018-02-12T01:39:06.454Z,34.10
2018-02-12T01:41:34.075Z,36.30
2018-02-12T01:44:01.671Z,36.23
2018-02-12T01:46:29.258Z,35.93
2018-02-12T01:48:56.865Z,37.20
2018-02-12T01:51:24.513Z,36.07
2018-02-12T01:53:52.135Z,35.07
2018-02-12T01:56:19.767Z,33.80
2018-02-12T01:58:47.392Z,34.00
2018-02-12T02:01:15.027Z,35.67
2018-02-12T02:03:42.676Z,35.60
2018-02-12T02:06:10.238Z,33.77
2018-02-12T02:08:37.874Z,34.20
2018-02-12T02:11:05.442Z,32.63
2018-02-12T02:13:33.103Z,32.93
2018-02-12T02:16:00.896Z,34.97
2018-02-12T02:18:28.509Z,32.90
2018-02-12T02:20:56.165Z,34.17
2018-02-12T02:23:23.709Z,32.60
2018-02-12T02:25:51.259Z,29.70
2018-02-12T02:28:18.814Z,31.67
2018-02-12T02:30:46.445Z,32.30
2018-02-12T02:33:14.006Z,32.57
2018-02-12T02:35:41.670Z,34.40
2018-02-12T02:38:09.294Z,31.67
2018-02-12T02:40:36.919Z,32.57
2018-02-12T02:43:04.491Z,31.50
2018-02-12T02:45:32.068Z,32.13
2018-02-12T02:47:59.686Z,31.70
2018-02-12T02:50:27.255Z,32.83
2018-02-12T02:52:54.873Z,33.77
2018-02-12T02:55:22.441Z,31.10
2018-02-12T02:57:50.067Z,30.27
2018-02-12T03:00:17.698Z,31.30
2018-02-12T03:02:45.263Z,39.60
2018-02-12T03:05:12.882Z,40.37
2018-02-12T03:07:40.446Z,43.07
2018-02-12T03:10:08.001Z,50.57
2018-02-12T03:12:35.571Z,45.60
2018-02-12T03:15:03.137Z,34.57
2018-02-12T03:17:30.716Z,33.73
2018-02-12T03:19:58.282Z,32.17
2018-02-12T03:22:25.966Z,32.07
2018-02-12T03:24:53.709Z,30.50
2018-02-12T03:27:21.301Z,31.80
2018-02-12T03:29:48.945Z,31.07
2018-02-12T03:32:16.509Z,32.43
2018-02-12T03:34:44.074Z,32.03
2018-02-12T03:37:11.696Z,32.70
2018-02-12T03:39:39.309Z,32.67
2018-02-12T03:42:06.869Z,30.20
2018-02-12T03:44:34.414Z,31.77
2018-02-12T03:47:02.036Z,33.30
2018-02-12T03:49:29.579Z,30.30
2018-02-12T03:51:57.149Z,30.60
2018-02-12T03:54:24.819Z,33.93
2018-02-12T03:56:52.506Z,30.90
2018-02-12T03:59:20.129Z,32.10
2018-02-12T04:01:47.698Z,31.23
2018-02-12T04:04:15.280Z,31.00
2018-02-12T04:06:42.910Z,30.77
2018-02-12T04:09:10.562Z,32.00
2018-02-12T04:11:38.125Z,31.43
2018-02-12T04:14:05.754Z,30.77
2018-02-12T04:16:33.310Z,32.70
2018-02-12T04:19:00.885Z,32.37
2018-02-12T04:21:28.515Z,34.17
2018-02-12T04:23:56.134Z,32.80
2018-02-12T04:26:23.705Z,32.97
2018-02-12T04:28:51.313Z,34.37
2018-02-12T04:31:19.004Z,43.57
2018-02-12T04:33:46.649Z,48.97
2018-02-12T04:36:14.214Z,37.57
2018-02-12T04:38:41.786Z,30.60
2018-02-12T04:41:09.411Z,28.67
2018-02-12T04:43:36.981Z,29.97
2018-02-12T04:46:04.537Z,28.40
2018-02-12T04:48:32.177Z,27.50
2018-02-12T04:50:59.747Z,29.80
2018-02-12T04:53:27.309Z,30.03
2018-02-12T04:55:54.880Z,30.57
2018-02-12T04:58:22.498Z,30.13
2018-02-12T05:00:50.084Z,30.80
2018-02-12T05:03:17.627Z,27.10
2018-02-12T05:05:45.253Z,25.53
2018-02-12T05:08:12.893Z,26.13
2018-02-12T05:10:40.546Z,25.53
2018-02-12T05:13:08.128Z,26.63
2018-02-12T05:15:35.675Z,26.17
2018-02-12T05:18:03.298Z,24.77
2018-02-12T05:20:30.859Z,29.80
2018-02-12T05:22:58.463Z,29.87
2018-02-12T05:25:26.026Z,32.47
2018-02-12T05:27:53.585Z,35.90
2018-02-12T05:30:21.222Z,33.80
2018-02-12T05:32:48.852Z,32.90
2018-02-12T05:35:16.557Z,33.77
2018-02-12T05:37:44.130Z,36.53
2018-02-12T05:40:11.758Z,40.07
2018-02-12T05:42:39.398Z,36.07
2018-02-12T05:45:06.961Z,35.00
2018-02-12T05:47:34.579Z,34.53
2018-02-12T05:50:02.140Z,37.07
2018-02-12T05:52:29.702Z,34.67
2018-02-12T05:54:57.254Z,35.33
2018-02-12T05:57:24.815Z,36.03
2018-02-12T05:59:52.390Z,33.70
2018-02-12T06:02:20.015Z,31.33
2018-02-12T06:04:47.725Z,30.27
2018-02-12T06:07:15.286Z,48.40
2018-02-12T06:09:42.912Z,66.47
2018-02-12T06:12:10.465Z,54.00
2018-02-12T06:14:38.010Z,49.97
2018-02-12T06:17:05.582Z,50.27
2018-02-12T06:19:33.203Z,43.33
2018-02-12T06:22:00.800Z,39.17
2018-02-12T06:24:28.358Z,41.10
2018-02-12T06:26:55.933Z,40.03
2018-02-12T06:29:23.510Z,38.80
2018-02-12T06:31:51.070Z,39.30
2018-02-12T06:34:18.698Z,44.57
2018-02-12T06:36:46.318Z,37.47
2018-02-12T06:39:13.937Z,34.00
2018-02-12T06:41:41.505Z,45.17
2018-02-12T06:44:09.069Z,46.53
2018-02-12T06:46:36.637Z,42.53
2018-02-12T06:49:04.200Z,44.60
2018-02-12T06:51:31.792Z,56.13
2018-02-12T06:53:59.353Z,52.67
2018-02-12T06:56:26.982Z,55.70
2018-02-12T06:58:54.537Z,47.80
2018-02-12T07:01:22.158Z,56.80
2018-02-12T07:03:49.743Z,61.30
2018-02-12T07:06:17.319Z,62.77
2018-02-12T07:08:44.950Z,70.67
2018-02-12T07:11:12.555Z,66.10
2018-02-12T07:13:40.235Z,66.10
2018-02-12T07:16:07.863Z,58.47
2018-02-12T07:18:35.428Z,49.40
2018-02-12T07:21:02.998Z,50.97
2018-02-12T07:23:30.575Z,44.27
2018-02-12T07:25:58.132Z,35.30
2018-02-12T07:28:25.746Z,32.53
2018-02-12T07:30:53.374Z,37.20
2018-02-12T07:33:20.998Z,30.50
2018-02-12T07:35:48.605Z,36.37
2018-02-12T07:38:16.181Z,36.47
2018-02-12T07:40:43.741Z,36.20
2018-02-12T07:43:11.317Z,32.77
2018-02-12T07:45:38.893Z,37.40
2018-02-12T07:48:06.537Z,36.33
2018-02-12T07:50:34.110Z,30.57
2018-02-12T07:53:01.750Z,31.47
2018-02-12T07:55:29.329Z,33.57
2018-02-12T07:57:56.960Z,27.10
2018-02-12T08:00:24.542Z,27.10
2018-02-12T08:02:52.132Z,29.20
2018-02-12T08:05:19.756Z,29.63
2018-02-12T08:07:47.306Z,32.90
2018-02-12T08:10:14.878Z,35.40
2018-02-12T08:12:42.480Z,34.47
2018-02-12T08:15:10.857Z,38.90
2018-02-12T08:17:38.435Z,50.63
2018-02-12T08:20:06.015Z,49.97
2018-02-12T08:22:33.637Z,52.90
2018-02-12T08:25:01.206Z,60.83
2018-02-12T08:27:28.782Z,54.83
2018-02-12T08:29:56.364Z,57.97
2018-02-12T08:32:23.987Z,40.43
2018-02-12T08:34:51.634Z,51.80
2018-02-12T08:37:19.205Z,45.87
2018-02-12T08:39:46.868Z,45.53
2018-02-12T08:42:14.507Z,43.93
2018-02-12T08:44:42.078Z,40.33
2018-02-12T08:47:09.660Z,36.90
2018-02-12T08:49:37.230Z,36.67
2018-02-12T08:52:04.909Z,28.23
2018-02-12T08:54:32.494Z,27.83
2018-02-12T08:57:00.159Z,33.97
2018-02-12T08:59:27.748Z,31.90
2018-02-12T09:01:55.332Z,38.57
2018-02-12T09:04:22.930Z,40.00
2018-02-12T09:06:50.565Z,36.73
2018-02-12T09:09:18.138Z,26.67
2018-02-12T09:11:45.718Z,23.30
2018-02-12T09:14:13.335Z,17.23
2018-02-12T09:16:40.967Z,15.43
2018-02-12T09:19:08.602Z,16.80
2018-02-12T09:21:36.249Z,15.70
2018-02-12T09:24:03.827Z,13.60
2018-02-12T09:26:31.508Z,13.70
2018-02-12T09:28:59.078Z,15.80
2018-02-12T09:31:26.646Z,14.97
2018-02-12T09:33:54.225Z,15.03
2018-02-12T09:36:21.839Z,18.63
2018-02-12T09:38:49.458Z,19.73
2018-02-12T09:41:17.021Z,21.50
2018-02-12T09:43:44.589Z,20.50
2018-02-12T09:46:12.193Z,21.40
2018-02-12T09:48:39.765Z,20.20
2018-02-12T09:51:07.402Z,23.17
2018-02-12T09:53:34.974Z,17.00
2018-02-12T09:56:02.620Z,21.40
2018-02-12T09:58:30.204Z,22.53
2018-02-12T10:00:57.785Z,18.63
2018-02-12T10:03:25.433Z,18.20
2018-02-12T10:05:53.054Z,16.07
2018-02-12T10:08:21.487Z,20.00
2018-02-12T10:10:49.051Z,20.90
2018-02-12T10:13:16.738Z,20.20
2018-02-12T10:15:44.354Z,20.27
2018-02-12T10:18:11.978Z,19.10
2018-02-12T10:20:39.553Z,21.47
2018-02-12T10:23:07.118Z,20.80
2018-02-12T10:25:34.692Z,17.50
2018-02-12T10:28:02.274Z,17.50
2018-02-12T10:30:29.898Z,16.57
2018-02-12T10:32:57.519Z,14.57
2018-02-12T10:35:25.139Z,16.17
2018-02-12T10:37:52.722Z,16.40
2018-02-12T10:40:20.297Z,14.37
2018-02-12T10:42:47.914Z,14.43
2018-02-12T10:45:15.535Z,13.97
2018-02-12T10:47:43.205Z,15.33
2018-02-12T10:50:10.771Z,16.57
2018-02-12T10:52:38.338Z,17.03
2018-02-12T10:55:05.928Z,15.10
2018-02-12T10:57:33.490Z,16.33
2018-02-12T11:00:01.131Z,16.30
2018-02-12T11:02:28.709Z,16.57
2018-02-12T11:04:56.419Z,19.37
2018-02-12T11:07:23.986Z,15.90
2018-02-12T11:09:51.554Z,19.00
2018-02-12T11:12:19.138Z,18.20
2018-02-12T11:14:46.713Z,16.27
2018-02-12T11:17:14.355Z,16.07
2018-02-12T11:19:41.941Z,17.50
2018-02-12T11:22:09.486Z,16.30
2018-02-12T11:24:37.058Z,16.87
2018-02-12T11:27:04.688Z,17.27
2018-02-12T11:29:32.351Z,17.40
2018-02-12T11:32:00.027Z,18.43
2018-02-12T11:34:27.654Z,18.07
2018-02-12T11:36:55.250Z,16.57
2018-02-12T11:39:22.869Z,16.20
2018-02-12T11:41:50.502Z,16.60
2018-02-12T11:44:18.140Z,19.00
2018-02-12T11:46:45.712Z,17.33
2018-02-12T11:49:13.298Z,15.97
2018-02-12T11:51:40.870Z,15.40
2018-02-12T11:54:08.507Z,16.20
2018-02-12T11:56:36.070Z,14.03
2018-02-12T11:59:03.702Z,11.80
2018-02-12T12:01:31.332Z,11.00
2018-02-12T12:03:58.905Z,11.00
2018-02-12T12:06:26.477Z,12.23
2018-02-12T12:08:54.039Z,21.30
2018-02-12T12:11:21.618Z,11.23
2018-02-12T12:13:49.244Z,11.33
2018-02-12T12:16:16.876Z,10.43
2018-02-12T12:18:44.445Z,7.20
2018-02-12T12:21:12.019Z,7.20
2018-02-12T12:23:39.651Z,7.13
2018-02-12T12:26:07.279Z,6.77
2018-02-12T12:28:34.914Z,6.93
2018-02-12T12:31:02.553Z,8.03
2018-02-12T12:33:30.181Z,7.30
2018-02-12T12:35:57.750Z,8.37
2018-02-12T12:38:25.387Z,8.90
2018-02-12T12:40:53.198Z,8.00
2018-02-12T12:43:20.826Z,9.57
2018-02-12T12:45:48.454Z,8.37
2018-02-12T12:48:16.024Z,7.03
2018-02-12T12:50:43.717Z,7.80
2018-02-12T12:53:11.279Z,8.30
2018-02-12T12:55:38.851Z,8.33
2018-02-12T12:58:06.434Z,13.93
2018-02-12T13:00:34.002Z,8.63
2018-02-12T13:03:01.567Z,8.47
2018-02-12T13:05:29.190Z,7.40
2018-02-12T13:07:56.903Z,7.80
2018-02-12T13:10:24.527Z,7.77
2018-02-12T13:12:52.086Z,8.53
2018-02-12T13:15:19.708Z,8.20
2018-02-12T13:17:47.588Z,8.10
2018-02-12T13:20:15.223Z,8.00
2018-02-12T13:22:42.853Z,9.53
2018-02-12T13:25:10.472Z,9.10
2018-02-12T13:27:38.091Z,8.80
2018-02-12T13:30:05.720Z,10.50
2018-02-12T13:32:33.315Z,10.50
2018-02-12T13:35:00.892Z,8.70
2018-02-12T13:37:28.488Z,13.20
2018-02-12T13:39:56.118Z,9.47
2018-02-12T13:42:23.747Z,16.77
2018-02-12T13:44:51.312Z,8.70
2018-02-12T13:47:18.895Z,8.67
2018-02-12T13:49:46.607Z,9.03
2018-02-12T13:52:14.210Z,8.00
2018-02-12T13:54:41.808Z,13.30
2018-02-12T13:57:09.461Z,11.90
2018-02-12T13:59:37.193Z,9.90
2018-02-12T14:02:04.795Z,13.57
2018-02-12T14:04:32.379Z,14.50
2018-02-12T14:07:00.023Z,8.03
2018-02-12T14:09:27.590Z,8.70
2018-02-12T14:11:55.279Z,8.07
2018-02-12T14:14:22.846Z,7.60
2018-02-12T14:16:50.599Z,7.97
2018-02-12T14:19:18.214Z,9.27
2018-02-12T14:21:45.842Z,9.23
2018-02-12T14:24:13.486Z,8.90
2018-02-12T14:26:41.061Z,9.00
2018-02-12T14:29:08.626Z,8.93
2018-02-12T14:31:36.181Z,9.33
2018-02-12T14:34:03.806Z,10.57
2018-02-12T14:36:31.377Z,10.90
2018-02-12T14:38:58.996Z,11.07
2018-02-12T14:41:26.569Z,9.60
2018-02-12T14:43:54.139Z,11.00
2018-02-12T14:46:21.739Z,10.60
2018-02-12T14:48:49.323Z,8.90
2018-02-12T14:51:17.403Z,9.13
2018-02-12T14:53:44.988Z,8.20
2018-02-12T14:56:12.563Z,8.90
2018-02-12T14:58:40.154Z,7.53
2018-02-12T15:01:07.755Z,9.37
2018-02-12T15:03:35.333Z,9.60
2018-02-12T15:06:02.902Z,9.63
2018-02-12T15:08:30.682Z,9.47
2018-02-12T15:10:59.013Z,10.73
2018-02-12T15:13:26.590Z,10.23
2018-02-12T15:15:54.170Z,9.57
2018-02-12T15:18:21.806Z,9.07
2018-02-12T15:20:49.458Z,9.13
2018-02-12T15:23:17.119Z,8.67
2018-02-12T15:25:44.891Z,9.80
2018-02-12T15:28:12.518Z,9.33
2018-02-12T15:30:40.083Z,9.67
2018-02-12T15:33:07.651Z,10.00
2018-02-12T15:35:35.277Z,10.13
2018-02-12T15:38:03.424Z,9.40
2018-02-12T15:40:31.017Z,8.67
2018-02-12T15:42:58.650Z,8.40
2018-02-12T15:45:26.267Z,9.27
2018-02-12T15:47:53.879Z,8.90
2018-02-12T15:50:21.522Z,10.40
2018-02-12T15:52:49.157Z,11.83
2018-02-12T15:55:16.734Z,12.30
2018-02-12T15:57:44.307Z,11.20
2018-02-12T16:00:11.964Z,12.60
2018-02-12T16:02:39.546Z,12.40
2018-02-12T16:05:07.121Z,11.40
2018-02-12T16:07:34.751Z,14.30
2018-02-12T16:10:02.337Z,12.30
2018-02-12T16:12:29.926Z,13.83
2018-02-12T16:15:10.204Z,12.43
2018-02-12T16:17:37.939Z,20.53
2018-02-12T16:20:05.610Z,55.10
2018-02-12T16:22:33.240Z,53.30
2018-02-12T16:25:00.858Z,53.47
2018-02-12T16:27:28.478Z,53.40
2018-02-12T16:29:56.112Z,49.87
2018-02-12T16:32:23.781Z,56.33
2018-02-12T16:34:51.509Z,55.37
2018-02-12T16:37:19.090Z,59.03
2018-02-12T16:39:46.700Z,60.13
2018-02-12T16:42:14.287Z,64.00
2018-02-12T16:44:41.970Z,58.87
2018-02-12T16:47:09.643Z,62.67
2018-02-12T16:49:37.224Z,66.80
2018-02-12T16:52:04.943Z,71.37
2018-02-12T16:54:32.538Z,89.77
2018-02-12T16:57:00.131Z,97.40
2018-02-12T16:59:27.731Z,100.80
2018-02-12T17:01:55.309Z,158.07
2018-02-12T17:04:22.895Z,137.20
2018-02-12T17:06:50.476Z,92.50
2018-02-12T17:09:18.798Z,78.60
2018-02-12T17:11:46.457Z,72.27
2018-02-12T17:14:14.095Z,66.40
2018-02-12T17:16:42.248Z,67.53
2018-02-12T17:19:09.879Z,65.90
2018-02-12T17:21:37.514Z,60.80
2018-02-12T17:24:05.087Z,59.60
2018-02-12T17:26:32.775Z,66.53
2018-02-12T17:29:01.223Z,72.27
2018-02-12T17:31:28.821Z,118.73
2018-02-12T17:33:56.472Z,78.57
2018-02-12T17:36:24.335Z,75.33
2018-02-12T17:38:52.096Z,79.90
2018-02-12T17:41:19.722Z,88.23
2018-02-12T17:43:47.330Z,98.20
2018-02-12T17:46:14.915Z,99.00
2018-02-12T17:48:42.491Z,88.07
2018-02-12T17:51:10.073Z,90.07
2018-02-12T17:53:37.658Z,82.47
2018-02-12T17:56:05.248Z,81.90
2018-02-12T17:58:32.813Z,83.70
2018-02-12T18:01:00.452Z,76.90
2018-02-12T18:03:28.078Z,86.97
2018-02-12T18:05:55.644Z,83.93
2018-02-12T18:08:23.871Z,115.47
2018-02-12T18:10:51.668Z,136.80
2018-02-12T18:13:19.258Z,112.70
2018-02-12T18:15:46.891Z,134.63
2018-02-12T18:18:14.518Z,122.63
2018-02-12T18:20:42.093Z,78.20
2018-02-12T18:23:09.666Z,76.30
2018-02-12T18:25:37.238Z,69.60
2018-02-12T18:28:05.311Z,72.57
2018-02-12T18:30:32.930Z,82.80
2018-02-12T18:33:00.519Z,105.57
2018-02-12T18:35:28.165Z,99.67
2018-02-12T18:37:55.734Z,97.50
2018-02-12T18:40:24.219Z,99.53
2018-02-12T18:42:51.862Z,89.63
2018-02-12T18:45:19.434Z,86.43
2018-02-12T18:47:47.130Z,85.73
2018-02-12T18:50:14.710Z,97.80
2018-02-12T18:52:43.679Z,107.07
2018-02-12T18:55:11.253Z,127.60
2018-02-12T18:57:38.888Z,82.70
2018-02-12T19:00:06.510Z,70.97
2018-02-12T19:02:34.123Z,81.87
2018-02-12T19:05:01.818Z,92.50
2018-02-12T19:07:29.450Z,89.00
2018-02-12T19:09:57.181Z,103.90
2018-02-12T19:12:24.814Z,102.17
2018-02-12T19:14:52.382Z,99.40
2018-02-12T19:17:19.971Z,106.20
2018-02-12T19:19:47.569Z,100.03
2018-02-12T19:22:15.166Z,106.87
2018-02-12T19:24:42.738Z,93.70
2018-02-12T19:27:10.374Z,93.70
2018-02-12T19:29:37.945Z,94.83
2018-02-12T19:32:05.509Z,92.60
2018-02-12T19:34:33.094Z,103.77
2018-02-12T19:37:00.665Z,101.77
2018-02-12T19:39:28.227Z,99.80
2018-02-12T19:41:56.540Z,93.87
2018-02-12T19:44:24.190Z,91.53
2018-02-12T19:46:51.766Z,85.63
2018-02-12T19:49:19.357Z,84.83
2018-02-12T19:51:46.981Z,81.07
2018-02-12T19:54:14.643Z,81.47
2018-02-12T19:56:42.278Z,79.57
2018-02-12T19:59:09.850Z,79.80
2018-02-12T20:01:37.432Z,70.10
2018-02-12T20:04:05.060Z,68.33
2018-02-12T20:06:32.638Z,77.57
2018-02-12T20:09:00.256Z,68.77
2018-02-12T20:11:27.882Z,83.07
2018-02-12T20:13:55.464Z,83.10
2018-02-12T20:16:23.055Z,94.77
2018-02-12T20:18:50.612Z,113.67
2018-02-12T20:21:18.336Z,76.67
2018-02-12T20:23:45.958Z,70.27
2018-02-12T20:26:13.522Z,97.30
2018-02-12T20:28:41.111Z,108.97
2018-02-12T20:31:08.675Z,86.60
2018-02-12T20:33:36.247Z,80.83
2018-02-12T20:36:04.053Z,87.10
2018-02-12T20:38:31.630Z,109.43
2018-02-12T20:40:59.278Z,70.80
2018-02-12T20:43:26.862Z,62.57
2018-02-12T20:45:54.491Z,67.73
2018-02-12T20:48:22.150Z,70.10
2018-02-12T20:50:49.739Z,107.23
2018-02-12T20:53:17.314Z,105.97
2018-02-12T20:55:44.941Z,93.27
2018-02-12T20:58:12.502Z,87.90
2018-02-12T21:00:40.078Z,123.03
2018-02-12T21:03:07.695Z,92.30
2018-02-12T21:05:35.270Z,79.43
2018-02-12T21:08:02.838Z,49.17
2018-02-12T21:10:30.409Z,43.17
2018-02-12T21:12:57.969Z,43.53
2018-02-12T21:15:25.547Z,48.00
2018-02-12T21:17:53.127Z,56.83
2018-02-12T21:20:20.754Z,59.43
2018-02-12T21:22:48.325Z,58.63
2018-02-12T21:25:15.954Z,55.07
2018-02-12T21:27:43.527Z,49.07
2018-02-12T21:30:11.142Z,43.70
2018-02-12T21:32:38.797Z,45.43
2018-02-12T21:35:06.368Z,47.80
2018-02-12T21:37:34.025Z,52.73
2018-02-12T21:40:01.587Z,54.27
2018-02-12T21:42:29.151Z,47.83
2018-02-12T21:44:56.726Z,46.93
2018-02-12T21:47:24.341Z,42.53
2018-02-12T21:49:51.910Z,43.30
2018-02-12T21:52:19.482Z,45.73
2018-02-12T21:54:47.103Z,43.70
2018-02-12T21:57:14.726Z,45.97
2018-02-12T21:59:42.347Z,50.87
2018-02-12T22:02:09.958Z,50.33
2018-02-12T22:04:37.521Z,44.80
2018-02-12T22:07:05.142Z,48.60
2018-02-12T22:09:32.720Z,48.17
2018-02-12T22:12:00.343Z,46.10
2018-02-12T22:14:27.902Z,43.77
2018-02-12T22:16:55.466Z,42.77
2018-02-12T22:19:23.042Z,49.27
2018-02-12T22:21:50.589Z,43.97
2018-02-12T22:24:18.248Z,41.90
2018-02-12T22:26:45.884Z,40.10
2018-02-12T22:29:13.497Z,40.33
2018-02-12T22:31:41.053Z,38.80
2018-02-12T22:34:08.614Z,36.57
2018-02-12T22:36:36.281Z,34.20
2018-02-12T22:39:03.947Z,28.67
2018-02-12T22:41:31.513Z,29.37
2018-02-12T22:43:59.079Z,26.93
2018-02-12T22:46:26.696Z,27.93
2018-02-12T22:48:54.260Z,32.63
2018-02-12T22:51:21.883Z,30.50
2018-02-12T22:53:49.515Z,29.60
2018-02-12T22:56:17.086Z,23.00
2018-02-12T22:58:44.717Z,26.10
2018-02-12T23:01:12.274Z,26.80
2018-02-12T23:03:39.898Z,30.73
2018-02-12T23:06:07.453Z,28.47
2018-02-12T23:08:35.009Z,31.03
2018-02-12T23:11:02.637Z,27.07
2018-02-12T23:13:30.189Z,24.33
2018-02-12T23:15:57.791Z,28.13
2018-02-12T23:18:25.349Z,30.67
2018-02-12T23:20:52.937Z,35.90
2018-02-12T23:23:20.558Z,34.33
2018-02-12T23:25:48.268Z,29.47
2018-02-12T23:28:15.827Z,29.63
2018-02-12T23:30:43.397Z,33.03
2018-02-12T23:33:11.007Z,31.23
2018-02-12T23:35:38.541Z,32.17
2018-02-12T23:38:06.120Z,30.03
2018-02-12T23:40:33.742Z,31.80
2018-02-12T23:43:01.359Z,34.07
2018-02-12T23:45:28.923Z,39.40
2018-02-12T23:47:56.546Z,37.53
2018-02-12T23:50:24.174Z,33.40
2018-02-12T23:52:51.731Z,27.23
2018-02-12T23:55:19.282Z,24.00
2018-02-12T23:57:46.834Z,28.53
